sensor_id;sensor_type;location;lat;lon;timestamp;temperature;humidity
43143;DHT22;28750;59.842;17.584;2023-05-29T00:00:04;9.20;1.00
43143;DHT22;28750;59.842;17.584;2023-05-29T00:02:36;9.20;99.90
43143;DHT22;28750;59.842;17.584;2023-05-29T00:05:03;9.40;65.50
43143;DHT22;28750;59.842;17.584;2023-05-29T00:07:31;9.20;1.00
43143;DHT22;28750;59.842;17.584;2023-05-29T00:09:59;9.10;1.00
43143;DHT22;28750;59.842;17.584;2023-05-29T00:12:27;9.20;1.00
43143;DHT22;28750;59.842;17.584;2023-05-29T00:14:54;9.10;1.00
43143;DHT22;28750;59.842;17.584;2023-05-29T00:17:21;9.10;99.90
43143;DHT22;28750;59.842;17.584;2023-05-29T00:19:48;9.00;99.90
43143;DHT22;28750;59.842;17.584;2023-05-29T00:22:16;9.10;7.50
43143;DHT22;28750;59.842;17.584;2023-05-29T00:24:43;9.00;99.90
43143;DHT22;28750;59.842;17.584;2023-05-29T00:27:11;9.00;99.90
43143;DHT22;28750;59.842;17.584;2023-05-29T00:29:39;9.00;99.90
43143;DHT22;28750;59.842;17.584;2023-05-29T00:32:06;8.90;99.90
43143;DHT22;28750;59.842;17.584;2023-05-29T00:34:34;8.90;99.90
43143;DHT22;28750;59.842;17.584;2023-05-29T00:37:01;8.90;99.90
43143;DHT22;28750;59.842;17.584;2023-05-29T00:39:28;8.80;1.00
43143;DHT22;28750;59.842;17.584;2023-05-29T00:41:56;8.80;99.90
43143;DHT22;28750;59.842;17.584;2023-05-29T00:44:23;8.60;99.90
43143;DHT22;28750;59.842;17.584;2023-05-29T00:46:52;8.50;99.90
43143;DHT22;28750;59.842;17.584;2023-05-29T00:49:21;8.50;99.90
43143;DHT22;28750;59.842;17.584;2023-05-29T00:51:51;8.40;99.90
43143;DHT22;28750;59.842;17.584;2023-05-29T00:54:23;8.30;99.90
43143;DHT22;28750;59.842;17.584;2023-05-29T00:56:53;8.20;99.90
43143;DHT22;28750;59.842;17.584;2023-05-29T00:59:21;8.20;99.90
43143;DHT22;28750;59.842;17.584;2023-05-29T01:01:49;8.20;99.90
43143;DHT22;28750;59.842;17.584;2023-05-29T01:04:17;8.10;99.90
43143;DHT22;28750;59.842;17.584;2023-05-29T01:06:44;8.00;99.90
43143;DHT22;28750;59.842;17.584;2023-05-29T01:09:11;7.90;99.90
43143;DHT22;28750;59.842;17.584;2023-05-29T01:17:17;7.70;99.90
43143;DHT22;28750;59.842;17.584;2023-05-29T01:19:59;7.60;99.90
43143;DHT22;28750;59.842;17.584;2023-05-29T01:26:07;7.40;99.90
43143;DHT22;28750;59.842;17.584;2023-05-29T01:28:46;7.50;99.90
43143;DHT22;28750;59.842;17.584;2023-05-29T01:31:17;7.50;99.90
43143;DHT22;28750;59.842;17.584;2023-05-29T01:33:51;7.40;99.90
43143;DHT22;28750;59.842;17.584;2023-05-29T01:36:18;7.20;99.90
43143;DHT22;28750;59.842;17.584;2023-05-29T01:38:47;7.20;99.90
43143;DHT22;28750;59.842;17.584;2023-05-29T01:41:15;7.10;99.90
43143;DHT22;28750;59.842;17.584;2023-05-29T01:43:44;7.10;1.00
43143;DHT22;28750;59.842;17.584;2023-05-29T01:46:15;7.00;1.00
43143;DHT22;28750;59.842;17.584;2023-05-29T01:48:44;7.00;1.00
43143;DHT22;28750;59.842;17.584;2023-05-29T01:51:12;6.90;1.00
43143;DHT22;28750;59.842;17.584;2023-05-29T01:53:41;6.90;1.00
43143;DHT22;28750;59.842;17.584;2023-05-29T01:56:09;6.80;89.90
43143;DHT22;28750;59.842;17.584;2023-05-29T01:58:38;6.80;99.90
43143;DHT22;28750;59.842;17.584;2023-05-29T02:01:07;6.70;99.90
43143;DHT22;28750;59.842;17.584;2023-05-29T02:03:34;6.60;99.90
43143;DHT22;28750;59.842;17.584;2023-05-29T02:06:02;6.60;99.90
43143;DHT22;28750;59.842;17.584;2023-05-29T02:08:29;6.70;99.90
43143;DHT22;28750;59.842;17.584;2023-05-29T02:10:56;6.70;99.90
43143;DHT22;28750;59.842;17.584;2023-05-29T02:13:24;6.70;99.90
43143;DHT22;28750;59.842;17.584;2023-05-29T02:15:51;6.70;99.90
43143;DHT22;28750;59.842;17.584;2023-05-29T02:18:18;6.60;98.10
43143;DHT22;28750;59.842;17.584;2023-05-29T02:20:46;6.60;32.90
43143;DHT22;28750;59.842;17.584;2023-05-29T02:23:13;6.70;1.10
43143;DHT22;28750;59.842;17.584;2023-05-29T02:25:41;6.60;1.00
43143;DHT22;28750;59.842;17.584;2023-05-29T02:28:09;6.60;1.00
43143;DHT22;28750;59.842;17.584;2023-05-29T02:30:36;6.70;1.00
43143;DHT22;28750;59.842;17.584;2023-05-29T02:33:03;6.70;99.90
43143;DHT22;28750;59.842;17.584;2023-05-29T02:35:32;6.60;99.90
43143;DHT22;28750;59.842;17.584;2023-05-29T02:37:59;6.60;1.00
43143;DHT22;28750;59.842;17.584;2023-05-29T02:40:26;6.60;1.00
43143;DHT22;28750;59.842;17.584;2023-05-29T02:42:53;6.50;1.00
43143;DHT22;28750;59.842;17.584;2023-05-29T02:45:21;6.50;1.00
43143;DHT22;28750;59.842;17.584;2023-05-29T02:47:48;6.60;1.00
43143;DHT22;28750;59.842;17.584;2023-05-29T02:50:15;6.60;99.90
43143;DHT22;28750;59.842;17.584;2023-05-29T02:52:42;6.60;99.90
43143;DHT22;28750;59.842;17.584;2023-05-29T02:55:10;6.60;99.90
43143;DHT22;28750;59.842;17.584;2023-05-29T02:57:37;6.60;99.90
43143;DHT22;28750;59.842;17.584;2023-05-29T03:00:04;6.60;99.90
43143;DHT22;28750;59.842;17.584;2023-05-29T03:02:33;6.70;99.90
43143;DHT22;28750;59.842;17.584;2023-05-29T03:05:01;6.70;99.90
43143;DHT22;28750;59.842;17.584;2023-05-29T03:07:29;6.80;99.90
43143;DHT22;28750;59.842;17.584;2023-05-29T03:09:56;6.80;99.90
43143;DHT22;28750;59.842;17.584;2023-05-29T03:12:23;6.90;3.30
43143;DHT22;28750;59.842;17.584;2023-05-29T03:14:53;7.10;1.00
43143;DHT22;28750;59.842;17.584;2023-05-29T03:17:22;7.00;1.00
43143;DHT22;28750;59.842;17.584;2023-05-29T03:19:49;6.90;1.00
43143;DHT22;28750;59.842;17.584;2023-05-29T03:22:17;6.80;1.00
43143;DHT22;28750;59.842;17.584;2023-05-29T03:24:44;6.70;1.00
43143;DHT22;28750;59.842;17.584;2023-05-29T03:27:12;6.70;1.00
43143;DHT22;28750;59.842;17.584;2023-05-29T03:29:39;6.80;16.40
43143;DHT22;28750;59.842;17.584;2023-05-29T03:32:07;6.90;87.80
43143;DHT22;28750;59.842;17.584;2023-05-29T03:34:34;7.00;98.10
43143;DHT22;28750;59.842;17.584;2023-05-29T03:37:02;7.00;1.00
43143;DHT22;28750;59.842;17.584;2023-05-29T03:39:29;7.00;20.50
43143;DHT22;28750;59.842;17.584;2023-05-29T03:41:56;7.10;1.00
43143;DHT22;28750;59.842;17.584;2023-05-29T03:44:23;7.10;99.90
43143;DHT22;28750;59.842;17.584;2023-05-29T03:46:51;7.10;99.30
43143;DHT22;28750;59.842;17.584;2023-05-29T03:49:18;7.40;51.00
43143;DHT22;28750;59.842;17.584;2023-05-29T03:51:45;7.50;1.00
43143;DHT22;28750;59.842;17.584;2023-05-29T03:54:13;7.70;1.00
43143;DHT22;28750;59.842;17.584;2023-05-29T03:56:40;7.80;99.90
43143;DHT22;28750;59.842;17.584;2023-05-29T03:59:07;7.80;99.90
43143;DHT22;28750;59.842;17.584;2023-05-29T04:01:35;8.00;99.90
43143;DHT22;28750;59.842;17.584;2023-05-29T04:04:02;8.00;47.20
43143;DHT22;28750;59.842;17.584;2023-05-29T04:06:29;8.30;99.90
43143;DHT22;28750;59.842;17.584;2023-05-29T04:08:56;8.30;10.10
43143;DHT22;28750;59.842;17.584;2023-05-29T04:11:23;8.30;3.70
43143;DHT22;28750;59.842;17.584;2023-05-29T04:13:51;8.50;1.00
43143;DHT22;28750;59.842;17.584;2023-05-29T04:16:18;8.70;1.00
43143;DHT22;28750;59.842;17.584;2023-05-29T04:18:45;8.80;1.00
43143;DHT22;28750;59.842;17.584;2023-05-29T04:21:12;8.90;99.90
43143;DHT22;28750;59.842;17.584;2023-05-29T04:23:40;9.00;99.90
43143;DHT22;28750;59.842;17.584;2023-05-29T04:26:07;9.00;99.90
43143;DHT22;28750;59.842;17.584;2023-05-29T04:28:36;9.10;99.90
43143;DHT22;28750;59.842;17.584;2023-05-29T04:31:04;9.30;99.90
43143;DHT22;28750;59.842;17.584;2023-05-29T04:33:32;9.40;99.90
43143;DHT22;28750;59.842;17.584;2023-05-29T04:36:03;9.50;90.50
43143;DHT22;28750;59.842;17.584;2023-05-29T04:38:30;9.60;5.50
43143;DHT22;28750;59.842;17.584;2023-05-29T04:40:58;9.80;44.10
43143;DHT22;28750;59.842;17.584;2023-05-29T04:43:25;9.90;1.00
43143;DHT22;28750;59.842;17.584;2023-05-29T04:45:53;9.80;1.00
43143;DHT22;28750;59.842;17.584;2023-05-29T04:48:20;10.00;1.00
43143;DHT22;28750;59.842;17.584;2023-05-29T04:50:48;10.10;1.00
43143;DHT22;28750;59.842;17.584;2023-05-29T04:53:18;10.30;1.00
43143;DHT22;28750;59.842;17.584;2023-05-29T04:55:45;10.40;99.90
43143;DHT22;28750;59.842;17.584;2023-05-29T04:58:12;10.50;99.90
43143;DHT22;28750;59.842;17.584;2023-05-29T05:00:39;10.70;99.90
43143;DHT22;28750;59.842;17.584;2023-05-29T05:03:08;10.70;99.90
43143;DHT22;28750;59.842;17.584;2023-05-29T05:05:36;10.70;99.90
43143;DHT22;28750;59.842;17.584;2023-05-29T05:08:03;10.60;99.90
43143;DHT22;28750;59.842;17.584;2023-05-29T05:10:31;10.60;99.90
43143;DHT22;28750;59.842;17.584;2023-05-29T05:12:58;10.90;99.90
43143;DHT22;28750;59.842;17.584;2023-05-29T05:15:28;11.00;99.90
43143;DHT22;28750;59.842;17.584;2023-05-29T05:17:55;11.00;99.90
43143;DHT22;28750;59.842;17.584;2023-05-29T05:20:23;11.00;99.90
43143;DHT22;28750;59.842;17.584;2023-05-29T05:22:50;10.90;99.90
43143;DHT22;28750;59.842;17.584;2023-05-29T05:25:17;11.10;99.90
43143;DHT22;28750;59.842;17.584;2023-05-29T05:27:44;11.30;99.90
43143;DHT22;28750;59.842;17.584;2023-05-29T05:30:12;11.30;99.90
43143;DHT22;28750;59.842;17.584;2023-05-29T05:32:39;11.40;99.90
43143;DHT22;28750;59.842;17.584;2023-05-29T05:35:07;11.50;99.90
43143;DHT22;28750;59.842;17.584;2023-05-29T05:37:37;11.80;99.90
43143;DHT22;28750;59.842;17.584;2023-05-29T05:40:05;11.60;99.90
43143;DHT22;28750;59.842;17.584;2023-05-29T05:42:34;11.70;99.90
43143;DHT22;28750;59.842;17.584;2023-05-29T05:45:01;11.80;99.90
43143;DHT22;28750;59.842;17.584;2023-05-29T05:47:29;12.00;99.90
43143;DHT22;28750;59.842;17.584;2023-05-29T05:49:57;12.30;99.90
43143;DHT22;28750;59.842;17.584;2023-05-29T05:52:24;12.40;99.90
43143;DHT22;28750;59.842;17.584;2023-05-29T05:54:56;12.00;99.90
43143;DHT22;28750;59.842;17.584;2023-05-29T05:57:23;12.20;99.90
43143;DHT22;28750;59.842;17.584;2023-05-29T05:59:51;11.80;99.90
43143;DHT22;28750;59.842;17.584;2023-05-29T06:02:18;12.00;99.90
43143;DHT22;28750;59.842;17.584;2023-05-29T06:04:46;11.80;99.90
43143;DHT22;28750;59.842;17.584;2023-05-29T06:07:14;12.30;99.90
43143;DHT22;28750;59.842;17.584;2023-05-29T06:09:41;12.70;99.90
43143;DHT22;28750;59.842;17.584;2023-05-29T06:12:09;12.50;99.90
43143;DHT22;28750;59.842;17.584;2023-05-29T06:14:36;12.50;95.40
43143;DHT22;28750;59.842;17.584;2023-05-29T06:17:03;12.50;94.80
43143;DHT22;28750;59.842;17.584;2023-05-29T06:19:30;12.70;99.90
43143;DHT22;28750;59.842;17.584;2023-05-29T06:21:58;13.10;99.90
43143;DHT22;28750;59.842;17.584;2023-05-29T06:24:25;12.80;99.30
43143;DHT22;28750;59.842;17.584;2023-05-29T06:26:52;13.00;79.20
43143;DHT22;28750;59.842;17.584;2023-05-29T06:29:19;13.10;75.90
43143;DHT22;28750;59.842;17.584;2023-05-29T06:31:49;13.30;97.80
43143;DHT22;28750;59.842;17.584;2023-05-29T06:34:16;13.20;19.10
43143;DHT22;28750;59.842;17.584;2023-05-29T06:36:44;12.90;51.60
43143;DHT22;28750;59.842;17.584;2023-05-29T06:39:11;12.60;51.10
43143;DHT22;28750;59.842;17.584;2023-05-29T06:41:38;12.70;84.10
43143;DHT22;28750;59.842;17.584;2023-05-29T06:44:06;12.80;24.30
43143;DHT22;28750;59.842;17.584;2023-05-29T06:46:33;12.70;41.60
43143;DHT22;28750;59.842;17.584;2023-05-29T06:49:00;13.00;64.60
43143;DHT22;28750;59.842;17.584;2023-05-29T06:51:28;12.90;45.10
43143;DHT22;28750;59.842;17.584;2023-05-29T06:53:55;12.80;8.40
43143;DHT22;28750;59.842;17.584;2023-05-29T06:56:22;12.80;2.90
43143;DHT22;28750;59.842;17.584;2023-05-29T06:58:52;13.00;1.00
43143;DHT22;28750;59.842;17.584;2023-05-29T07:01:19;13.00;12.30
43143;DHT22;28750;59.842;17.584;2023-05-29T07:03:47;13.20;21.80
43143;DHT22;28750;59.842;17.584;2023-05-29T07:06:18;13.30;9.30
43143;DHT22;28750;59.842;17.584;2023-05-29T07:08:45;13.30;1.00
43143;DHT22;28750;59.842;17.584;2023-05-29T07:11:13;13.50;1.00
43143;DHT22;28750;59.842;17.584;2023-05-29T07:13:40;13.50;1.00
43143;DHT22;28750;59.842;17.584;2023-05-29T07:16:08;13.70;1.00
43143;DHT22;28750;59.842;17.584;2023-05-29T07:18:35;14.10;1.00
43143;DHT22;28750;59.842;17.584;2023-05-29T07:21:02;13.70;1.00
43143;DHT22;28750;59.842;17.584;2023-05-29T07:23:30;14.10;1.00
43143;DHT22;28750;59.842;17.584;2023-05-29T07:25:57;14.20;1.00
43143;DHT22;28750;59.842;17.584;2023-05-29T07:28:24;14.50;1.00
43143;DHT22;28750;59.842;17.584;2023-05-29T07:30:52;14.60;1.00
43143;DHT22;28750;59.842;17.584;2023-05-29T07:33:19;14.40;1.00
43143;DHT22;28750;59.842;17.584;2023-05-29T07:35:48;14.40;1.00
43143;DHT22;28750;59.842;17.584;2023-05-29T07:38:15;15.00;1.00
43143;DHT22;28750;59.842;17.584;2023-05-29T07:40:42;15.30;1.00
43143;DHT22;28750;59.842;17.584;2023-05-29T07:43:10;15.60;1.00
43143;DHT22;28750;59.842;17.584;2023-05-29T07:45:37;15.10;1.00
43143;DHT22;28750;59.842;17.584;2023-05-29T07:48:04;15.30;1.00
43143;DHT22;28750;59.842;17.584;2023-05-29T07:50:31;15.40;1.00
43143;DHT22;28750;59.842;17.584;2023-05-29T07:52:59;15.50;1.00
43143;DHT22;28750;59.842;17.584;2023-05-29T07:55:27;15.70;1.00
43143;DHT22;28750;59.842;17.584;2023-05-29T07:57:54;16.00;1.00
43143;DHT22;28750;59.842;17.584;2023-05-29T08:00:21;16.00;1.00
43143;DHT22;28750;59.842;17.584;2023-05-29T08:02:49;16.20;1.00
43143;DHT22;28750;59.842;17.584;2023-05-29T08:05:17;15.80;1.00
43143;DHT22;28750;59.842;17.584;2023-05-29T08:07:45;16.30;1.00
43143;DHT22;28750;59.842;17.584;2023-05-29T08:10:13;16.20;99.90
43143;DHT22;28750;59.842;17.584;2023-05-29T08:12:41;16.10;99.90
43143;DHT22;28750;59.842;17.584;2023-05-29T08:15:08;16.30;99.90
43143;DHT22;28750;59.842;17.584;2023-05-29T08:17:36;16.50;99.90
43143;DHT22;28750;59.842;17.584;2023-05-29T08:20:03;16.90;99.90
43143;DHT22;28750;59.842;17.584;2023-05-29T08:22:32;17.40;99.90
43143;DHT22;28750;59.842;17.584;2023-05-29T08:25:00;16.30;99.90
43143;DHT22;28750;59.842;17.584;2023-05-29T08:27:28;17.30;99.90
43143;DHT22;28750;59.842;17.584;2023-05-29T08:29:56;17.10;99.90
43143;DHT22;28750;59.842;17.584;2023-05-29T08:32:23;17.40;99.90
43143;DHT22;28750;59.842;17.584;2023-05-29T08:34:51;17.70;99.90
43143;DHT22;28750;59.842;17.584;2023-05-29T08:37:19;18.10;99.90
43143;DHT22;28750;59.842;17.584;2023-05-29T08:39:46;17.00;99.90
43143;DHT22;28750;59.842;17.584;2023-05-29T08:42:25;17.30;99.90
43143;DHT22;28750;59.842;17.584;2023-05-29T08:44:56;17.80;99.90
43143;DHT22;28750;59.842;17.584;2023-05-29T08:47:26;18.10;99.90
43143;DHT22;28750;59.842;17.584;2023-05-29T08:49:54;18.00;99.90
43143;DHT22;28750;59.842;17.584;2023-05-29T08:52:23;18.60;99.90
43143;DHT22;28750;59.842;17.584;2023-05-29T08:54:55;19.20;99.90
43143;DHT22;28750;59.842;17.584;2023-05-29T08:57:26;19.10;99.90
43143;DHT22;28750;59.842;17.584;2023-05-29T08:59:56;18.40;99.90
43143;DHT22;28750;59.842;17.584;2023-05-29T09:02:23;18.30;99.90
43143;DHT22;28750;59.842;17.584;2023-05-29T09:04:50;18.80;99.90
43143;DHT22;28750;59.842;17.584;2023-05-29T09:07:20;17.70;99.90
43143;DHT22;28750;59.842;17.584;2023-05-29T09:09:48;18.00;99.90
43143;DHT22;28750;59.842;17.584;2023-05-29T09:12:16;17.90;99.90
43143;DHT22;28750;59.842;17.584;2023-05-29T09:14:44;18.00;99.90
43143;DHT22;28750;59.842;17.584;2023-05-29T09:17:13;17.80;99.90
43143;DHT22;28750;59.842;17.584;2023-05-29T09:19:41;18.60;99.90
43143;DHT22;28750;59.842;17.584;2023-05-29T09:22:09;19.30;99.90
43143;DHT22;28750;59.842;17.584;2023-05-29T09:24:38;19.20;99.90
43143;DHT22;28750;59.842;17.584;2023-05-29T09:27:06;17.80;99.90
43143;DHT22;28750;59.842;17.584;2023-05-29T09:29:46;18.40;99.90
43143;DHT22;28750;59.842;17.584;2023-05-29T09:32:17;20.00;99.90
43143;DHT22;28750;59.842;17.584;2023-05-29T09:34:45;19.70;99.90
43143;DHT22;28750;59.842;17.584;2023-05-29T09:37:13;18.60;99.90
43143;DHT22;28750;59.842;17.584;2023-05-29T09:39:47;19.60;99.90
43143;DHT22;28750;59.842;17.584;2023-05-29T09:42:15;20.30;99.90
43143;DHT22;28750;59.842;17.584;2023-05-29T09:44:45;20.80;99.90
43143;DHT22;28750;59.842;17.584;2023-05-29T09:47:19;20.20;99.90
43143;DHT22;28750;59.842;17.584;2023-05-29T09:49:47;20.00;99.90
43143;DHT22;28750;59.842;17.584;2023-05-29T09:52:15;19.80;99.90
43143;DHT22;28750;59.842;17.584;2023-05-29T09:54:48;20.00;99.90
43143;DHT22;28750;59.842;17.584;2023-05-29T09:57:17;20.30;99.90
43143;DHT22;28750;59.842;17.584;2023-05-29T09:59:45;20.40;99.90
43143;DHT22;28750;59.842;17.584;2023-05-29T10:02:17;20.10;99.90
43143;DHT22;28750;59.842;17.584;2023-05-29T10:04:45;20.90;99.90
43143;DHT22;28750;59.842;17.584;2023-05-29T10:07:27;20.00;99.90
43143;DHT22;28750;59.842;17.584;2023-05-29T10:09:59;19.90;99.90
43143;DHT22;28750;59.842;17.584;2023-05-29T10:12:27;21.10;99.90
43143;DHT22;28750;59.842;17.584;2023-05-29T10:14:57;21.80;99.90
43143;DHT22;28750;59.842;17.584;2023-05-29T10:17:31;21.10;99.90
43143;DHT22;28750;59.842;17.584;2023-05-29T10:20:02;21.10;99.90
43143;DHT22;28750;59.842;17.584;2023-05-29T10:22:32;21.20;99.90
43143;DHT22;28750;59.842;17.584;2023-05-29T10:25:01;21.30;99.90
43143;DHT22;28750;59.842;17.584;2023-05-29T10:27:29;22.10;99.90
43143;DHT22;28750;59.842;17.584;2023-05-29T10:30:06;21.20;99.90
43143;DHT22;28750;59.842;17.584;2023-05-29T10:35:25;20.80;99.90
43143;DHT22;28750;59.842;17.584;2023-05-29T10:37:56;21.30;99.90
43143;DHT22;28750;59.842;17.584;2023-05-29T10:40:25;21.30;99.90
43143;DHT22;28750;59.842;17.584;2023-05-29T10:42:53;22.20;99.90
43143;DHT22;28750;59.842;17.584;2023-05-29T10:50:44;19.90;99.90
43143;DHT22;28750;59.842;17.584;2023-05-29T10:53:26;20.40;99.90
43143;DHT22;28750;59.842;17.584;2023-05-29T10:55:53;20.50;99.90
43143;DHT22;28750;59.842;17.584;2023-05-29T10:58:22;20.70;99.90
43143;DHT22;28750;59.842;17.584;2023-05-29T11:00:50;20.20;99.90
43143;DHT22;28750;59.842;17.584;2023-05-29T11:03:23;19.90;99.90
43143;DHT22;28750;59.842;17.584;2023-05-29T11:06:04;21.00;99.90
43143;DHT22;28750;59.842;17.584;2023-05-29T11:11:02;22.10;99.90
43143;DHT22;28750;59.842;17.584;2023-05-29T11:13:36;21.10;99.90
43143;DHT22;28750;59.842;17.584;2023-05-29T11:18:37;20.40;99.90
43143;DHT22;28750;59.842;17.584;2023-05-29T11:21:13;20.30;99.90
43143;DHT22;28750;59.842;17.584;2023-05-29T11:23:43;20.10;99.90
43143;DHT22;28750;59.842;17.584;2023-05-29T11:26:12;19.90;99.90
43143;DHT22;28750;59.842;17.584;2023-05-29T11:28:39;20.50;99.90
43143;DHT22;28750;59.842;17.584;2023-05-29T11:31:08;20.30;99.90
43143;DHT22;28750;59.842;17.584;2023-05-29T11:33:39;19.80;99.90
43143;DHT22;28750;59.842;17.584;2023-05-29T11:36:09;18.80;99.90
43143;DHT22;28750;59.842;17.584;2023-05-29T11:38:36;19.40;99.90
43143;DHT22;28750;59.842;17.584;2023-05-29T11:41:03;19.90;99.90
43143;DHT22;28750;59.842;17.584;2023-05-29T11:43:31;19.30;99.90
43143;DHT22;28750;59.842;17.584;2023-05-29T11:45:59;19.00;99.90
43143;DHT22;28750;59.842;17.584;2023-05-29T11:48:26;18.50;99.90
43143;DHT22;28750;59.842;17.584;2023-05-29T11:50:53;18.80;99.90
43143;DHT22;28750;59.842;17.584;2023-05-29T11:53:20;18.40;99.90
43143;DHT22;28750;59.842;17.584;2023-05-29T11:55:48;18.90;99.90
43143;DHT22;28750;59.842;17.584;2023-05-29T11:58:16;19.80;99.90
43143;DHT22;28750;59.842;17.584;2023-05-29T12:00:44;19.70;99.90
43143;DHT22;28750;59.842;17.584;2023-05-29T12:03:13;19.10;99.90
43143;DHT22;28750;59.842;17.584;2023-05-29T12:05:48;19.30;99.90
43143;DHT22;28750;59.842;17.584;2023-05-29T12:08:21;19.10;99.90
43143;DHT22;28750;59.842;17.584;2023-05-29T12:10:51;19.30;99.90
43143;DHT22;28750;59.842;17.584;2023-05-29T12:13:19;19.10;99.90
43143;DHT22;28750;59.842;17.584;2023-05-29T12:15:49;19.00;99.90
43143;DHT22;28750;59.842;17.584;2023-05-29T12:18:18;18.90;99.90
43143;DHT22;28750;59.842;17.584;2023-05-29T12:20:45;18.80;99.90
43143;DHT22;28750;59.842;17.584;2023-05-29T12:23:13;18.80;99.90
43143;DHT22;28750;59.842;17.584;2023-05-29T12:25:40;19.20;99.90
43143;DHT22;28750;59.842;17.584;2023-05-29T12:28:09;19.30;99.90
43143;DHT22;28750;59.842;17.584;2023-05-29T12:30:42;20.50;99.90
43143;DHT22;28750;59.842;17.584;2023-05-29T12:33:28;20.10;99.90
43143;DHT22;28750;59.842;17.584;2023-05-29T12:36:02;20.20;99.90
43143;DHT22;28750;59.842;17.584;2023-05-29T12:38:29;19.60;99.90
43143;DHT22;28750;59.842;17.584;2023-05-29T12:40:57;20.20;99.90
43143;DHT22;28750;59.842;17.584;2023-05-29T12:43:24;19.90;99.90
43143;DHT22;28750;59.842;17.584;2023-05-29T12:45:55;20.20;99.90
43143;DHT22;28750;59.842;17.584;2023-05-29T12:48:26;20.90;99.90
43143;DHT22;28750;59.842;17.584;2023-05-29T12:50:54;21.30;99.90
43143;DHT22;28750;59.842;17.584;2023-05-29T12:53:28;21.00;99.90
43143;DHT22;28750;59.842;17.584;2023-05-29T12:55:57;20.00;99.90
43143;DHT22;28750;59.842;17.584;2023-05-29T12:58:24;20.10;99.90
43143;DHT22;28750;59.842;17.584;2023-05-29T13:00:53;20.30;99.90
43143;DHT22;28750;59.842;17.584;2023-05-29T13:03:23;20.60;99.90
43143;DHT22;28750;59.842;17.584;2023-05-29T13:05:51;20.50;99.90
43143;DHT22;28750;59.842;17.584;2023-05-29T13:08:19;20.40;99.90
43143;DHT22;28750;59.842;17.584;2023-05-29T13:10:47;20.00;99.90
43143;DHT22;28750;59.842;17.584;2023-05-29T13:13:14;19.80;99.90
43143;DHT22;28750;59.842;17.584;2023-05-29T13:15:41;19.90;99.90
43143;DHT22;28750;59.842;17.584;2023-05-29T13:18:09;20.40;99.90
43143;DHT22;28750;59.842;17.584;2023-05-29T13:20:36;20.50;99.90
43143;DHT22;28750;59.842;17.584;2023-05-29T13:23:03;20.80;99.90
43143;DHT22;28750;59.842;17.584;2023-05-29T13:25:30;21.00;99.90
43143;DHT22;28750;59.842;17.584;2023-05-29T13:27:58;22.00;99.90
43143;DHT22;28750;59.842;17.584;2023-05-29T13:30:25;21.30;99.90
43143;DHT22;28750;59.842;17.584;2023-05-29T13:32:53;21.10;99.90
43143;DHT22;28750;59.842;17.584;2023-05-29T13:35:20;21.40;99.90
43143;DHT22;28750;59.842;17.584;2023-05-29T13:37:48;21.50;99.90
43143;DHT22;28750;59.842;17.584;2023-05-29T13:40:15;21.40;99.90
43143;DHT22;28750;59.842;17.584;2023-05-29T13:42:43;21.50;99.90
43143;DHT22;28750;59.842;17.584;2023-05-29T13:45:10;20.10;99.90
43143;DHT22;28750;59.842;17.584;2023-05-29T13:47:40;20.40;99.90
43143;DHT22;28750;59.842;17.584;2023-05-29T13:50:08;21.10;99.90
43143;DHT22;28750;59.842;17.584;2023-05-29T13:52:35;19.60;99.90
43143;DHT22;28750;59.842;17.584;2023-05-29T13:55:03;19.10;99.90
43143;DHT22;28750;59.842;17.584;2023-05-29T13:57:35;18.70;99.90
43143;DHT22;28750;59.842;17.584;2023-05-29T14:00:04;19.40;99.90
43143;DHT22;28750;59.842;17.584;2023-05-29T14:02:32;20.40;99.90
43143;DHT22;28750;59.842;17.584;2023-05-29T14:04:59;20.00;99.90
43143;DHT22;28750;59.842;17.584;2023-05-29T14:07:26;20.70;99.90
43143;DHT22;28750;59.842;17.584;2023-05-29T14:09:53;21.70;99.90
43143;DHT22;28750;59.842;17.584;2023-05-29T14:12:20;21.50;99.90
43143;DHT22;28750;59.842;17.584;2023-05-29T14:14:48;22.10;99.90
43143;DHT22;28750;59.842;17.584;2023-05-29T14:17:15;21.80;99.90
43143;DHT22;28750;59.842;17.584;2023-05-29T14:19:42;21.10;99.90
43143;DHT22;28750;59.842;17.584;2023-05-29T14:22:11;20.90;99.90
43143;DHT22;28750;59.842;17.584;2023-05-29T14:24:38;21.60;99.90
43143;DHT22;28750;59.842;17.584;2023-05-29T14:27:06;21.30;99.90
43143;DHT22;28750;59.842;17.584;2023-05-29T14:29:33;20.90;99.90
43143;DHT22;28750;59.842;17.584;2023-05-29T14:32:01;20.50;99.90
43143;DHT22;28750;59.842;17.584;2023-05-29T14:34:28;20.00;99.90
43143;DHT22;28750;59.842;17.584;2023-05-29T14:36:55;19.50;99.90
43143;DHT22;28750;59.842;17.584;2023-05-29T14:39:22;19.30;99.90
43143;DHT22;28750;59.842;17.584;2023-05-29T14:41:50;19.60;99.90
43143;DHT22;28750;59.842;17.584;2023-05-29T14:44:17;19.70;99.90
43143;DHT22;28750;59.842;17.584;2023-05-29T14:46:44;19.80;99.90
43143;DHT22;28750;59.842;17.584;2023-05-29T14:49:12;19.90;99.90
43143;DHT22;28750;59.842;17.584;2023-05-29T14:51:39;19.50;99.90
43143;DHT22;28750;59.842;17.584;2023-05-29T14:54:08;19.00;99.90
43143;DHT22;28750;59.842;17.584;2023-05-29T14:56:37;18.90;99.90
43143;DHT22;28750;59.842;17.584;2023-05-29T14:59:04;18.50;99.90
43143;DHT22;28750;59.842;17.584;2023-05-29T15:01:31;18.40;99.90
43143;DHT22;28750;59.842;17.584;2023-05-29T15:03:59;18.10;99.90
43143;DHT22;28750;59.842;17.584;2023-05-29T15:06:26;18.00;99.90
43143;DHT22;28750;59.842;17.584;2023-05-29T15:08:54;18.60;99.90
43143;DHT22;28750;59.842;17.584;2023-05-29T15:11:21;18.20;99.90
43143;DHT22;28750;59.842;17.584;2023-05-29T15:13:49;18.30;99.90
43143;DHT22;28750;59.842;17.584;2023-05-29T15:16:16;18.50;99.90
43143;DHT22;28750;59.842;17.584;2023-05-29T15:18:43;18.20;99.90
43143;DHT22;28750;59.842;17.584;2023-05-29T15:21:11;18.10;99.90
43143;DHT22;28750;59.842;17.584;2023-05-29T15:23:38;18.10;99.90
43143;DHT22;28750;59.842;17.584;2023-05-29T15:26:06;18.10;99.90
43143;DHT22;28750;59.842;17.584;2023-05-29T15:28:34;18.00;99.90
43143;DHT22;28750;59.842;17.584;2023-05-29T15:31:01;17.90;99.90
43143;DHT22;28750;59.842;17.584;2023-05-29T15:33:29;17.80;99.90
43143;DHT22;28750;59.842;17.584;2023-05-29T15:35:56;18.00;99.90
43143;DHT22;28750;59.842;17.584;2023-05-29T15:38:23;17.80;99.90
43143;DHT22;28750;59.842;17.584;2023-05-29T15:40:51;17.80;99.90
43143;DHT22;28750;59.842;17.584;2023-05-29T15:43:19;17.60;99.90
43143;DHT22;28750;59.842;17.584;2023-05-29T15:45:46;17.40;99.90
43143;DHT22;28750;59.842;17.584;2023-05-29T15:48:14;17.30;99.90
43143;DHT22;28750;59.842;17.584;2023-05-29T15:50:41;17.70;99.90